Terminal Aerodrome Forecast
Issued by NWS

Home | Current Version | Previous Version | Graphics & Text | Print | Product List | Glossary On
Versions: 1 2 3 4 5 6 7 8 9 10 11 12 13 14 15 16 17 18 19 20 21 22 23 24 25 26 27 28 29 30 31 32 33 34 35 36 37 38 39
000
FTUS43 KLOT 212200 AAB
TAFMDW
TAF AMD
KMDW 212201Z 2122/2218 18013KT P6SM FEW150 SCT250
     FM220200 17012KT P6SM BKN050
     FM220400 19011KT P6SM OVC035
     FM220600 20012KT P6SM -FZDZ OVC015 WS020/22045KT
      TEMPO 2208/2212 3SM -FZRA BR OVC008
     FM221400 21011KT 6SM BR VCSH BKN010 OVC015
     FM221700 21012KT P6SM SCT012 BKN019=

USA.gov is the U.S. government's official web portal to all federal, state and local government web resources and services.